createdAt,value
2023-04-09T00:01:10.589Z,45.81
2023-04-09T00:03:40.123Z,45.77
2023-04-09T00:06:09.024Z,44.95
2023-04-09T00:08:37.264Z,45.43
2023-04-09T00:11:05.931Z,45.88
2023-04-09T00:13:39.277Z,45.92
2023-04-09T00:16:09.631Z,45.67
2023-04-09T00:18:38.056Z,45.50
2023-04-09T00:21:07.938Z,45.54
2023-04-09T00:23:36.910Z,45.64
2023-04-09T00:26:05.300Z,45.51
2023-04-09T00:28:33.590Z,45.26
2023-04-09T00:31:01.926Z,45.05
2023-04-09T00:33:30.181Z,45.38
2023-04-09T00:35:58.639Z,45.67
2023-04-09T00:38:26.991Z,45.72
2023-04-09T00:40:55.256Z,45.36
2023-04-09T00:43:23.700Z,45.48
2023-04-09T00:45:52.263Z,45.61
2023-04-09T00:48:20.660Z,45.53
2023-04-09T00:50:49.023Z,45.51
2023-04-09T00:53:18.365Z,45.51
2023-04-09T00:55:49.871Z,45.25
2023-04-09T00:58:18.253Z,44.55
2023-04-09T01:00:47.019Z,45.07
2023-04-09T01:03:15.816Z,45.43
2023-04-09T01:06:07.378Z,45.26
2023-04-09T01:09:11.473Z,45.62
2023-04-09T01:11:43.778Z,46.15
2023-04-09T01:14:43.067Z,46.07
2023-04-09T01:17:20.155Z,46.29
2023-04-09T01:20:30.260Z,46.08
2023-04-09T01:23:45.912Z,45.92
2023-04-09T01:26:20.288Z,46.10
2023-04-09T01:28:54.467Z,45.81
2023-04-09T01:31:26.329Z,45.77
2023-04-09T01:33:55.057Z,46.07
2023-04-09T01:36:25.444Z,45.96
2023-04-09T01:38:55.268Z,45.95
2023-04-09T01:41:24.938Z,46.12
2023-04-09T01:43:54.227Z,45.99
2023-04-09T01:46:23.781Z,46.03
2023-04-09T01:48:53.280Z,45.94
2023-04-09T01:51:22.026Z,46.06
2023-04-09T01:53:50.885Z,46.31
2023-04-09T01:56:19.183Z,46.40
2023-04-09T01:58:47.646Z,46.41
2023-04-09T02:01:34.563Z,46.64
2023-04-09T02:04:07.755Z,46.83
2023-04-09T02:06:53.150Z,47.27
2023-04-09T02:09:22.786Z,47.16
2023-04-09T02:11:52.087Z,47.66
2023-04-09T02:14:22.104Z,47.75
2023-04-09T02:16:50.434Z,48.07
2023-04-09T02:19:18.838Z,47.98
2023-04-09T02:21:48.158Z,48.17
2023-04-09T02:24:16.522Z,48.09
2023-04-09T02:26:44.964Z,48.22
2023-04-09T02:29:13.198Z,48.72
2023-04-09T02:31:41.442Z,48.96
2023-04-09T02:34:09.692Z,49.17
2023-04-09T02:36:37.946Z,49.76
2023-04-09T02:39:06.244Z,49.83
2023-04-09T02:41:34.506Z,50.07
2023-04-09T02:44:02.778Z,50.34
2023-04-09T02:46:31.088Z,50.45
2023-04-09T02:48:59.463Z,50.71
2023-04-09T02:51:28.379Z,50.76
2023-04-09T02:53:56.638Z,50.78
2023-04-09T02:56:24.923Z,50.92
2023-04-09T02:58:54.794Z,51.26
2023-04-09T03:01:23.361Z,51.40
2023-04-09T03:03:51.955Z,51.42
2023-04-09T03:06:20.408Z,51.53
2023-04-09T03:08:48.770Z,51.70
2023-04-09T03:11:17.093Z,51.95
2023-04-09T03:13:45.489Z,52.27
2023-04-09T03:16:13.855Z,52.41
2023-04-09T03:18:42.148Z,52.58
2023-04-09T03:21:12.834Z,52.64
2023-04-09T03:23:42.707Z,52.82
2023-04-09T03:26:11.031Z,52.98
2023-04-09T03:28:39.329Z,53.07
2023-04-09T03:31:07.676Z,53.25
2023-04-09T03:33:36.180Z,53.60
2023-04-09T03:36:04.599Z,53.48
2023-04-09T03:38:32.900Z,53.57
2023-04-09T03:41:01.278Z,53.62
2023-04-09T03:43:29.531Z,53.94
2023-04-09T03:45:57.795Z,53.50
2023-04-09T03:48:26.110Z,53.74
2023-04-09T03:50:54.695Z,53.75
2023-04-09T03:53:22.934Z,53.77
2023-04-09T03:55:51.219Z,53.91
2023-04-09T03:58:19.695Z,54.00
2023-04-09T04:00:47.994Z,53.83
2023-04-09T04:03:17.345Z,54.01
2023-04-09T04:05:45.735Z,54.08
2023-04-09T04:08:14.018Z,54.30
2023-04-09T04:10:42.392Z,53.86
2023-04-09T04:13:11.221Z,54.02
2023-04-09T04:15:45.699Z,53.96
2023-04-09T04:18:14.047Z,53.70
2023-04-09T04:20:42.631Z,53.64
2023-04-09T04:23:10.881Z,53.49
2023-04-09T04:25:42.187Z,53.27
2023-04-09T04:28:10.492Z,53.36
2023-04-09T04:30:38.776Z,53.34
2023-04-09T04:33:07.090Z,53.33
2023-04-09T04:35:35.406Z,53.32
2023-04-09T04:38:03.697Z,53.59
2023-04-09T04:40:31.961Z,53.92
2023-04-09T04:43:00.244Z,54.26
2023-04-09T04:45:28.593Z,54.69
2023-04-09T04:47:56.947Z,54.58
2023-04-09T04:50:25.207Z,54.55
2023-04-09T04:52:53.505Z,54.67
2023-04-09T04:55:21.770Z,54.67
2023-04-09T04:57:53.460Z,54.35
2023-04-09T05:00:21.943Z,54.51
2023-04-09T05:02:50.325Z,54.68
2023-04-09T05:05:18.753Z,54.45
2023-04-09T05:07:47.516Z,55.03
2023-04-09T05:10:15.819Z,54.80
2023-04-09T05:12:44.123Z,54.93
2023-04-09T05:15:12.487Z,55.01
2023-04-09T05:17:43.532Z,55.33
2023-04-09T05:20:12.702Z,55.09
2023-04-09T05:22:40.975Z,54.86
2023-04-09T05:25:10.181Z,54.71
2023-04-09T05:27:38.420Z,55.04
2023-04-09T05:30:07.245Z,54.73
2023-04-09T05:32:35.606Z,54.85
2023-04-09T05:35:04.029Z,54.87
2023-04-09T05:37:32.478Z,55.15
2023-04-09T05:40:00.739Z,54.71
2023-04-09T05:42:29.042Z,55.12
2023-04-09T05:44:57.401Z,55.31
2023-04-09T05:47:25.700Z,54.83
2023-04-09T05:49:54.045Z,55.08
2023-04-09T05:52:22.425Z,55.05
2023-04-09T05:54:50.744Z,54.86
2023-04-09T05:57:18.996Z,54.90
2023-04-09T05:59:47.572Z,54.87
2023-04-09T06:02:16.027Z,55.25
2023-04-09T06:04:44.528Z,54.87
2023-04-09T06:07:12.934Z,55.26
2023-04-09T06:09:41.407Z,55.28
2023-04-09T06:12:09.760Z,55.60
2023-04-09T06:14:38.099Z,55.58
2023-04-09T06:17:06.522Z,55.85
2023-04-09T06:19:35.020Z,55.98
2023-04-09T06:22:03.323Z,55.79
2023-04-09T06:24:34.097Z,56.10
2023-04-09T06:27:02.475Z,55.90
2023-04-09T06:29:30.791Z,56.08
2023-04-09T06:31:59.049Z,56.18
2023-04-09T06:34:27.354Z,56.30
2023-04-09T06:36:55.640Z,56.56
2023-04-09T06:39:23.908Z,56.37
2023-04-09T06:41:52.200Z,56.43
2023-04-09T06:44:20.987Z,56.61
2023-04-09T06:46:49.371Z,56.63
2023-04-09T06:49:17.770Z,57.18
2023-04-09T06:51:46.294Z,57.07
2023-04-09T06:54:14.904Z,57.37
2023-04-09T06:56:43.207Z,57.05
2023-04-09T06:59:12.477Z,57.00
2023-04-09T07:01:41.701Z,57.38
2023-04-09T07:04:10.232Z,57.70
2023-04-09T07:06:38.667Z,57.84
2023-04-09T07:09:07.610Z,57.97
2023-04-09T07:11:36.028Z,57.77
2023-04-09T07:14:04.323Z,57.86
2023-04-09T07:16:32.775Z,58.01
2023-04-09T07:19:01.209Z,57.79
2023-04-09T07:21:29.506Z,58.03
2023-04-09T07:23:58.437Z,58.14
2023-04-09T07:26:26.765Z,58.10
2023-04-09T07:28:55.045Z,58.18
2023-04-09T07:31:23.469Z,58.15
2023-04-09T07:33:52.137Z,58.53
2023-04-09T07:36:20.779Z,58.52
2023-04-09T07:38:49.461Z,58.60
2023-04-09T07:41:17.715Z,58.69
2023-04-09T07:43:46.098Z,59.15
2023-04-09T07:46:21.039Z,59.16
2023-04-09T07:48:51.129Z,59.00
2023-04-09T07:51:20.277Z,58.96
2023-04-09T07:53:48.799Z,59.36
2023-04-09T07:56:17.158Z,59.61
2023-04-09T07:58:45.690Z,59.79
2023-04-09T08:01:13.964Z,59.55
2023-04-09T08:03:42.682Z,59.64
2023-04-09T08:06:11.084Z,59.69
2023-04-09T08:08:39.337Z,59.69
2023-04-09T08:11:08.069Z,59.55
2023-04-09T08:13:36.300Z,59.95
2023-04-09T08:16:04.982Z,59.81
2023-04-09T08:18:33.236Z,59.88
2023-04-09T08:21:06.213Z,60.21
2023-04-09T08:23:34.536Z,60.02
2023-04-09T08:26:02.804Z,60.25
2023-04-09T08:28:31.265Z,59.93
2023-04-09T08:30:59.547Z,60.08
2023-04-09T08:33:27.804Z,60.34
2023-04-09T08:35:56.042Z,60.52
2023-04-09T08:38:24.264Z,60.62
2023-04-09T08:40:52.569Z,60.25
2023-04-09T08:43:25.113Z,60.40
2023-04-09T08:46:04.296Z,60.58
2023-04-09T08:48:33.107Z,60.78
2023-04-09T08:51:01.473Z,61.07
2023-04-09T08:53:30.123Z,61.00
2023-04-09T08:55:58.415Z,61.04
2023-04-09T08:58:26.676Z,60.89
2023-04-09T09:00:54.953Z,61.34
2023-04-09T09:03:23.369Z,61.29
2023-04-09T09:05:51.933Z,61.22
2023-04-09T09:08:27.606Z,61.26
2023-04-09T09:10:55.882Z,61.40
2023-04-09T09:13:28.927Z,61.54
2023-04-09T09:16:14.669Z,61.74
2023-04-09T09:18:45.412Z,61.51
2023-04-09T09:21:15.266Z,61.47
2023-04-09T09:23:43.870Z,61.83
2023-04-09T09:26:17.340Z,62.00
2023-04-09T09:28:47.933Z,61.91
2023-04-09T09:31:17.373Z,62.00
2023-04-09T09:33:46.140Z,61.82
2023-04-09T09:36:14.594Z,62.04
2023-04-09T09:39:00.641Z,61.94
2023-04-09T09:41:29.107Z,62.10
2023-04-09T09:43:57.935Z,62.01
2023-04-09T09:46:27.387Z,62.24
2023-04-09T09:48:55.673Z,62.34
2023-04-09T09:51:30.350Z,62.40
2023-04-09T09:53:58.535Z,62.56
2023-04-09T09:56:35.141Z,62.24
2023-04-09T09:59:19.326Z,62.53
2023-04-09T10:01:50.351Z,62.34
2023-04-09T10:04:23.220Z,62.64
2023-04-09T10:06:53.555Z,62.75
2023-04-09T10:09:24.513Z,62.82
2023-04-09T10:11:52.981Z,62.88
2023-04-09T10:14:22.223Z,62.85
2023-04-09T10:16:50.815Z,62.82
2023-04-09T10:19:19.626Z,63.11
2023-04-09T10:22:03.153Z,62.91
2023-04-09T10:24:32.516Z,63.38
2023-04-09T10:27:14.234Z,63.13
2023-04-09T10:29:48.850Z,63.38
2023-04-09T10:32:29.014Z,63.42
2023-04-09T10:35:00.305Z,63.48
2023-04-09T10:37:29.549Z,63.64
2023-04-09T10:39:58.625Z,63.64
2023-04-09T10:42:41.184Z,63.44
2023-04-09T10:45:11.693Z,63.54
2023-04-09T10:47:42.206Z,63.63
2023-04-09T10:50:24.339Z,63.71
2023-04-09T10:52:58.357Z,63.81
2023-04-09T10:55:42.707Z,63.92
2023-04-09T10:58:13.845Z,63.98
2023-04-09T11:00:52.889Z,64.13
2023-04-09T11:03:26.608Z,64.22
2023-04-09T11:06:02.112Z,64.26
2023-04-09T11:08:32.389Z,64.14
2023-04-09T11:11:02.297Z,64.42
2023-04-09T11:13:32.230Z,64.51
2023-04-09T11:16:02.130Z,64.60
2023-04-09T11:18:31.685Z,64.66
2023-04-09T11:21:02.132Z,64.76
2023-04-09T11:23:30.895Z,65.04
2023-04-09T11:25:59.173Z,64.76
2023-04-09T11:28:28.014Z,65.00
2023-04-09T11:30:56.311Z,65.16
2023-04-09T11:33:24.644Z,65.28
2023-04-09T11:35:53.036Z,65.21
2023-04-09T11:38:21.475Z,65.32
2023-04-09T11:40:50.037Z,65.32
2023-04-09T11:43:18.729Z,65.38
2023-04-09T11:45:50.235Z,65.52
2023-04-09T11:48:22.691Z,65.58
2023-04-09T11:50:51.830Z,65.60
2023-04-09T11:53:24.727Z,65.69
2023-04-09T11:55:54.470Z,65.66
2023-04-09T11:58:27.361Z,65.60
2023-04-09T12:00:57.139Z,65.53
2023-04-09T12:03:43.607Z,65.63
2023-04-09T12:06:11.974Z,65.64
2023-04-09T12:08:41.008Z,65.95
2023-04-09T12:11:13.349Z,65.97
2023-04-09T12:13:45.454Z,66.30
2023-04-09T12:16:15.073Z,66.19
2023-04-09T12:18:43.472Z,66.31
2023-04-09T12:21:12.099Z,66.35
2023-04-09T12:23:40.503Z,66.44
2023-04-09T12:26:09.044Z,66.42
2023-04-09T12:28:37.324Z,66.57
2023-04-09T12:31:05.603Z,66.59
2023-04-09T12:33:33.868Z,66.49
2023-04-09T12:36:02.313Z,66.83
2023-04-09T12:38:30.605Z,66.74
2023-04-09T12:40:58.892Z,66.74
2023-04-09T12:43:27.326Z,66.87
2023-04-09T12:45:55.577Z,67.12
2023-04-09T12:48:23.845Z,66.96
2023-04-09T12:50:52.525Z,67.02
2023-04-09T12:53:20.761Z,67.23
2023-04-09T12:55:49.004Z,67.19
2023-04-09T12:58:17.243Z,67.33
2023-04-09T13:00:45.518Z,67.28
2023-04-09T13:03:13.947Z,66.80
2023-04-09T13:05:42.728Z,67.61
2023-04-09T13:08:11.296Z,67.65
2023-04-09T13:10:39.905Z,67.80
2023-04-09T13:13:13.086Z,67.57
2023-04-09T13:15:45.657Z,67.53
2023-04-09T13:18:16.969Z,67.44
2023-04-09T13:20:45.492Z,67.83
2023-04-09T13:23:13.783Z,67.84
2023-04-09T13:25:42.025Z,67.56
2023-04-09T13:28:10.774Z,67.91
2023-04-09T13:30:39.088Z,67.87
2023-04-09T13:33:07.617Z,68.03
2023-04-09T13:35:35.960Z,67.86
2023-04-09T13:38:04.252Z,67.48
2023-04-09T13:40:32.627Z,67.84
2023-04-09T13:43:01.111Z,68.29
2023-04-09T13:45:29.372Z,67.81
2023-04-09T13:47:57.674Z,68.04
2023-04-09T13:50:26.127Z,68.20
2023-04-09T13:52:54.422Z,68.11
2023-04-09T13:55:22.750Z,68.43
2023-04-09T13:57:51.169Z,68.35
2023-04-09T14:00:20.708Z,68.21
2023-04-09T14:02:49.070Z,68.21
2023-04-09T14:05:17.918Z,68.46
2023-04-09T14:07:46.738Z,68.27
2023-04-09T14:10:15.085Z,68.31
2023-04-09T14:12:43.565Z,68.13
2023-04-09T14:15:12.151Z,68.05
2023-04-09T14:17:41.298Z,68.21
2023-04-09T14:20:09.981Z,68.46
2023-04-09T14:22:38.290Z,68.43
2023-04-09T14:25:07.459Z,68.37
2023-04-09T14:27:35.702Z,68.04
2023-04-09T14:30:04.486Z,68.18
2023-04-09T14:32:32.777Z,67.97
2023-04-09T14:35:01.316Z,68.39
2023-04-09T14:37:29.602Z,68.51
2023-04-09T14:39:57.909Z,68.26
2023-04-09T14:42:26.186Z,68.23
2023-04-09T14:44:54.431Z,68.14
2023-04-09T14:47:22.702Z,67.85
2023-04-09T14:49:51.187Z,67.94
2023-04-09T14:52:19.491Z,67.80
2023-04-09T14:54:48.068Z,67.73
2023-04-09T14:57:16.388Z,67.67
2023-04-09T14:59:44.620Z,67.50
2023-04-09T15:02:13.058Z,67.39
2023-04-09T15:04:41.488Z,67.32
2023-04-09T15:07:09.816Z,67.03
2023-04-09T15:09:38.063Z,66.77
2023-04-09T15:12:06.429Z,66.63
2023-04-09T15:14:34.751Z,66.63
2023-04-09T15:17:02.980Z,66.00
2023-04-09T15:19:33.151Z,66.40
2023-04-09T15:22:01.460Z,66.10
2023-04-09T15:24:31.864Z,65.78
2023-04-09T15:27:00.166Z,65.56
2023-04-09T15:29:28.542Z,65.43
2023-04-09T15:31:57.234Z,65.09
2023-04-09T15:34:26.757Z,65.06
2023-04-09T15:36:55.229Z,64.70
2023-04-09T15:39:25.431Z,65.15
2023-04-09T15:41:53.696Z,65.00
2023-04-09T15:44:22.003Z,64.84
2023-04-09T15:46:50.391Z,64.72
2023-04-09T15:49:20.306Z,64.69
2023-04-09T15:51:49.268Z,64.88
2023-04-09T15:54:17.556Z,64.53
2023-04-09T15:56:45.943Z,64.59
2023-04-09T15:59:14.206Z,64.19
2023-04-09T16:01:42.494Z,63.67
2023-04-09T16:04:11.389Z,63.71
2023-04-09T16:06:42.825Z,63.15
2023-04-09T16:09:11.274Z,62.70
2023-04-09T16:11:39.745Z,62.59
2023-04-09T16:14:08.276Z,62.61
2023-04-09T16:16:37.579Z,62.30
2023-04-09T16:19:05.900Z,62.00
2023-04-09T16:21:34.197Z,61.84
2023-04-09T16:24:02.431Z,61.79
2023-04-09T16:26:30.862Z,61.83
2023-04-09T16:29:03.815Z,61.51
2023-04-09T16:31:32.171Z,61.10
2023-04-09T16:34:00.581Z,61.13
2023-04-09T16:36:28.942Z,61.04
2023-04-09T16:38:57.231Z,60.85
2023-04-09T16:41:25.509Z,59.90
2023-04-09T16:43:53.907Z,59.46
2023-04-09T16:46:22.396Z,59.75
2023-04-09T16:48:50.832Z,59.21
2023-04-09T16:51:19.306Z,59.03
2023-04-09T16:53:47.879Z,59.02
2023-04-09T16:56:17.582Z,58.50
2023-04-09T16:58:47.582Z,58.24
2023-04-09T17:01:15.847Z,57.66
2023-04-09T17:03:44.203Z,57.49
2023-04-09T17:06:12.700Z,57.22
2023-04-09T17:08:41.284Z,57.12
2023-04-09T17:11:09.780Z,57.16
2023-04-09T17:13:38.031Z,56.71
2023-04-09T17:16:06.678Z,56.37
2023-04-09T17:18:35.482Z,56.38
2023-04-09T17:21:03.782Z,55.85
2023-04-09T17:23:32.034Z,55.80
2023-04-09T17:26:01.354Z,55.54
2023-04-09T17:28:29.559Z,55.21
2023-04-09T17:30:58.011Z,54.33
2023-04-09T17:33:26.958Z,54.22
2023-04-09T17:35:55.273Z,53.75
2023-04-09T17:38:25.968Z,53.26
2023-04-09T17:40:54.753Z,53.25
2023-04-09T17:43:23.007Z,53.49
2023-04-09T17:45:51.339Z,52.41
2023-04-09T17:48:19.826Z,52.41
2023-04-09T17:50:48.470Z,52.65
2023-04-09T17:53:16.740Z,52.40
2023-04-09T17:55:51.874Z,52.38
2023-04-09T17:58:20.351Z,52.42
2023-04-09T18:00:48.872Z,52.49
2023-04-09T18:03:21.072Z,52.19
2023-04-09T18:05:49.650Z,51.73
2023-04-09T18:08:18.371Z,51.92
2023-04-09T18:11:01.612Z,51.58
2023-04-09T18:13:37.466Z,51.21
2023-04-09T18:16:10.510Z,51.19
2023-04-09T18:18:39.392Z,50.78
2023-04-09T18:21:07.956Z,50.00
2023-04-09T18:23:36.382Z,50.73
2023-04-09T18:26:04.811Z,50.70
2023-04-09T18:28:33.168Z,50.27
2023-04-09T18:31:01.462Z,49.92
2023-04-09T18:33:29.769Z,50.05
2023-04-09T18:36:03.380Z,49.86
2023-04-09T18:38:32.491Z,49.74
2023-04-09T18:41:02.101Z,49.63
2023-04-09T18:43:30.861Z,49.21
2023-04-09T18:45:59.221Z,49.23
2023-04-09T18:48:27.637Z,49.05
2023-04-09T18:50:55.946Z,48.26
2023-04-09T18:53:24.258Z,48.26
2023-04-09T18:55:52.712Z,48.19
2023-04-09T18:58:20.962Z,48.14
2023-04-09T19:00:52.353Z,47.38
2023-04-09T19:03:20.859Z,47.69
2023-04-09T19:05:50.358Z,47.60
2023-04-09T19:08:18.635Z,47.36
2023-04-09T19:10:48.389Z,47.24
2023-04-09T19:13:17.686Z,46.37
2023-04-09T19:15:46.070Z,45.51
2023-04-09T19:18:14.396Z,45.30
2023-04-09T19:20:42.658Z,45.61
2023-04-09T19:23:11.696Z,44.89
2023-04-09T19:25:39.928Z,45.12
2023-04-09T19:28:08.225Z,43.87
2023-04-09T19:30:36.509Z,43.88
2023-04-09T19:33:04.865Z,43.89
2023-04-09T19:35:36.644Z,43.58
2023-04-09T19:38:05.218Z,43.74
2023-04-09T19:40:33.523Z,42.42
2023-04-09T19:43:01.866Z,42.43
2023-04-09T19:45:30.474Z,42.25
2023-04-09T19:47:58.784Z,41.75
2023-04-09T19:50:27.285Z,41.63
2023-04-09T19:52:57.108Z,41.80
2023-04-09T19:55:25.889Z,40.96
2023-04-09T19:57:54.143Z,41.40
2023-04-09T20:00:22.510Z,40.97
2023-04-09T20:02:51.704Z,40.98
2023-04-09T20:05:21.927Z,40.93
2023-04-09T20:07:50.895Z,40.67
2023-04-09T20:10:19.411Z,40.17
2023-04-09T20:12:52.083Z,39.48
2023-04-09T20:15:23.141Z,39.35
2023-04-09T20:17:52.278Z,38.29
2023-04-09T20:20:20.680Z,39.05
2023-04-09T20:22:56.148Z,38.90
2023-04-09T20:25:26.217Z,38.70
2023-04-09T20:27:55.356Z,38.54
2023-04-09T20:30:23.607Z,38.33
2023-04-09T20:32:51.941Z,37.23
2023-04-09T20:35:20.402Z,37.21
2023-04-09T20:37:50.317Z,37.13
2023-04-09T20:40:18.591Z,36.34
2023-04-09T20:42:47.212Z,35.98
2023-04-09T20:45:15.551Z,35.80
2023-04-09T20:47:43.861Z,35.50
2023-04-09T20:50:12.526Z,35.21
2023-04-09T20:52:40.907Z,35.39
2023-04-09T20:55:09.544Z,34.82
2023-04-09T20:57:37.868Z,33.98
2023-04-09T21:00:06.852Z,34.03
2023-04-09T21:02:35.583Z,33.36
2023-04-09T21:05:15.533Z,33.21
2023-04-09T21:07:50.055Z,31.14
2023-04-09T21:10:18.343Z,31.77
2023-04-09T21:12:46.724Z,32.27
2023-04-09T21:15:15.064Z,31.50
2023-04-09T21:17:43.436Z,31.42
2023-04-09T21:20:12.378Z,30.66
2023-04-09T21:22:40.685Z,30.13
2023-04-09T21:25:09.273Z,30.42
2023-04-09T21:27:37.546Z,29.55
2023-04-09T21:30:06.251Z,30.16
2023-04-09T21:32:34.510Z,29.87
2023-04-09T21:35:02.831Z,30.44
2023-04-09T21:37:32.877Z,29.70
2023-04-09T21:40:01.229Z,28.97
2023-04-09T21:42:32.295Z,27.98
2023-04-09T21:45:02.227Z,27.31
2023-04-09T21:47:30.598Z,27.45
2023-04-09T21:49:59.518Z,27.27
2023-04-09T21:52:27.790Z,27.58
2023-04-09T21:54:56.149Z,27.29
2023-04-09T21:57:25.085Z,26.83
2023-04-09T21:59:53.833Z,27.53
2023-04-09T22:02:22.286Z,27.36
2023-04-09T22:04:50.716Z,28.22
2023-04-09T22:07:19.098Z,28.65
2023-04-09T22:09:48.301Z,28.65
2023-04-09T22:12:16.753Z,28.93
2023-04-09T22:14:46.081Z,28.07
2023-04-09T22:17:14.474Z,28.10
2023-04-09T22:19:42.694Z,27.33
2023-04-09T22:22:13.105Z,27.46
2023-04-09T22:24:42.627Z,26.64
2023-04-09T22:27:10.929Z,26.78
2023-04-09T22:29:39.361Z,26.92
2023-04-09T22:32:07.721Z,26.80
2023-04-09T22:34:35.981Z,26.39
2023-04-09T22:37:04.294Z,26.50
2023-04-09T22:39:32.801Z,26.14
2023-04-09T22:42:01.079Z,26.20
2023-04-09T22:44:29.363Z,25.51
2023-04-09T22:46:57.745Z,23.79
2023-04-09T22:49:26.817Z,24.54
2023-04-09T22:51:55.743Z,24.21
2023-04-09T22:54:25.503Z,25.14
2023-04-09T22:56:53.814Z,25.32
2023-04-09T22:59:23.157Z,25.17
2023-04-09T23:01:55.985Z,25.52
2023-04-09T23:04:26.211Z,25.55
2023-04-09T23:06:55.421Z,25.52
2023-04-09T23:09:23.652Z,24.63
2023-04-09T23:11:52.066Z,25.60
2023-04-09T23:14:20.429Z,24.75
2023-04-09T23:16:48.733Z,25.24
2023-04-09T23:19:17.217Z,24.75
2023-04-09T23:21:45.594Z,25.68
2023-04-09T23:24:14.465Z,25.50
2023-04-09T23:26:42.707Z,26.19
2023-04-09T23:29:11.046Z,25.91
2023-04-09T23:31:39.323Z,26.46
2023-04-09T23:34:07.693Z,25.77
2023-04-09T23:36:36.002Z,25.81
2023-04-09T23:39:04.341Z,26.02
2023-04-09T23:41:32.790Z,26.26
2023-04-09T23:44:01.238Z,25.83
2023-04-09T23:46:29.699Z,25.63
2023-04-09T23:48:58.030Z,25.22
2023-04-09T23:51:26.899Z,25.42
2023-04-09T23:53:55.393Z,25.34
2023-04-09T23:56:24.051Z,25.97
2023-04-09T23:58:52.331Z,25.69
